KMSO

Missoula International Airport

Missoula, Montana, USA
KMSO 251720Z 2518/2618 34010KT P6SM SCT080 SCT250 FM260200 VRB03KT P6SM SKC
Issued Valid From Valid To
Sep-25 @ 17:20 UTC
(2 hours ago)
Sep-25 @ 18:00 UTC
(an hour ago)
Sep-26 @ 18:00 UTC
(in 23 hours)
Sep-25 @ 18:00 to Sep-26 @ 02:00
KMSO 251720Z 2518/2618 34010KT P6SM SCT080 SCT250
Wind Visibility Clouds
340° at 10 knots Greater than 6 miles
  • Scattered at 8,000' AGL
  • Scattered at 25,000' AGL
From Sep-26 @ 02:00 to Sep-26 @ 18:00
FM260200 VRB03KT P6SM SKC
Wind Visibility Clouds
Variable at 3 knots Greater than 6 miles
  • Clear skies
KMSO 251720Z 2518/2618 34010KT P6SM SCT080 SCT250 FM260200 VRB03KT P6SM SKC
Issued Sep-25 @ 17:20 UTC
(2 hours ago)
Valid From Sep-25 @ 18:00 UTC
(an hour ago)
Valid To Sep-26 @ 18:00 UTC
(in 23 hours)
Sep-25 @ 18:00 - Sep-26 @ 02:00
Wind Visibility
340° at 10 knots Greater than 6 miles
Clouds
  • Scattered at 8,000' AGL
  • Scattered at 25,000' AGL
From Sep-26 @ 02:00 - Sep-26 @ 18:00
Wind Visibility
Variable at 3 knots Greater than 6 miles
Clouds
  • Clear skies